sensor_id;sensor_type;location;lat;lon;timestamp;P1;durP1;ratioP1;P2;durP2;ratioP2
3083;SDS011;1552;51.952;7.618;2023-04-24T00:02:16;2.07;;;1.23;;
3083;SDS011;1552;51.952;7.618;2023-04-24T00:04:44;2.27;;;1.50;;
3083;SDS011;1552;51.952;7.618;2023-04-24T00:07:10;2.17;;;1.33;;
3083;SDS011;1552;51.952;7.618;2023-04-24T00:09:37;2.30;;;1.60;;
3083;SDS011;1552;51.952;7.618;2023-04-24T00:12:04;2.13;;;1.67;;
3083;SDS011;1552;51.952;7.618;2023-04-24T00:14:30;2.00;;;1.47;;
3083;SDS011;1552;51.952;7.618;2023-04-24T00:16:57;1.70;;;1.60;;
3083;SDS011;1552;51.952;7.618;2023-04-24T00:19:23;2.50;;;1.60;;
3083;SDS011;1552;51.952;7.618;2023-04-24T00:21:51;1.80;;;1.63;;
3083;SDS011;1552;51.952;7.618;2023-04-24T00:24:17;2.47;;;1.37;;
3083;SDS011;1552;51.952;7.618;2023-04-24T00:26:44;1.90;;;1.40;;
3083;SDS011;1552;51.952;7.618;2023-04-24T00:29:10;3.53;;;1.10;;
3083;SDS011;1552;51.952;7.618;2023-04-24T00:31:36;2.63;;;1.20;;
3083;SDS011;1552;51.952;7.618;2023-04-24T00:34:03;1.30;;;1.10;;
3083;SDS011;1552;51.952;7.618;2023-04-24T00:36:29;1.00;;;0.80;;
3083;SDS011;1552;51.952;7.618;2023-04-24T00:38:58;4.17;;;1.27;;
3083;SDS011;1552;51.952;7.618;2023-04-24T00:41:25;1.20;;;1.10;;
3083;SDS011;1552;51.952;7.618;2023-04-24T00:43:51;1.77;;;1.40;;
3083;SDS011;1552;51.952;7.618;2023-04-24T00:46:18;1.40;;;1.10;;
3083;SDS011;1552;51.952;7.618;2023-04-24T00:48:45;1.77;;;1.20;;
3083;SDS011;1552;51.952;7.618;2023-04-24T00:51:12;2.87;;;0.97;;
3083;SDS011;1552;51.952;7.618;2023-04-24T00:53:38;1.20;;;1.10;;
3083;SDS011;1552;51.952;7.618;2023-04-24T00:56:06;2.23;;;1.10;;
3083;SDS011;1552;51.952;7.618;2023-04-24T00:58:33;1.87;;;1.27;;
3083;SDS011;1552;51.952;7.618;2023-04-24T01:00:59;1.43;;;1.20;;
3083;SDS011;1552;51.952;7.618;2023-04-24T01:03:26;2.97;;;1.33;;
3083;SDS011;1552;51.952;7.618;2023-04-24T01:05:54;2.50;;;1.10;;
3083;SDS011;1552;51.952;7.618;2023-04-24T01:08:21;2.00;;;1.10;;
3083;SDS011;1552;51.952;7.618;2023-04-24T01:10:49;2.50;;;1.20;;
3083;SDS011;1552;51.952;7.618;2023-04-24T01:13:18;1.63;;;1.30;;
3083;SDS011;1552;51.952;7.618;2023-04-24T01:15:45;1.37;;;1.20;;
3083;SDS011;1552;51.952;7.618;2023-04-24T01:18:11;1.30;;;1.00;;
3083;SDS011;1552;51.952;7.618;2023-04-24T01:20:38;1.10;;;1.10;;
3083;SDS011;1552;51.952;7.618;2023-04-24T01:23:07;2.20;;;1.83;;
3083;SDS011;1552;51.952;7.618;2023-04-24T01:25:33;3.93;;;1.40;;
3083;SDS011;1552;51.952;7.618;2023-04-24T01:28:00;2.23;;;1.23;;
3083;SDS011;1552;51.952;7.618;2023-04-24T01:30:27;1.20;;;1.10;;
3083;SDS011;1552;51.952;7.618;2023-04-24T01:32:53;2.23;;;1.60;;
3083;SDS011;1552;51.952;7.618;2023-04-24T01:35:19;1.40;;;1.30;;
3083;SDS011;1552;51.952;7.618;2023-04-24T01:37:46;1.30;;;1.20;;
3083;SDS011;1552;51.952;7.618;2023-04-24T01:40:13;2.37;;;1.60;;
3083;SDS011;1552;51.952;7.618;2023-04-24T01:42:40;2.30;;;1.37;;
3083;SDS011;1552;51.952;7.618;2023-04-24T01:45:07;1.73;;;1.27;;
3083;SDS011;1552;51.952;7.618;2023-04-24T01:47:34;3.17;;;1.50;;
3083;SDS011;1552;51.952;7.618;2023-04-24T01:50:00;3.70;;;1.50;;
3083;SDS011;1552;51.952;7.618;2023-04-24T01:52:27;3.13;;;1.40;;
3083;SDS011;1552;51.952;7.618;2023-04-24T01:54:56;1.30;;;1.20;;
3083;SDS011;1552;51.952;7.618;2023-04-24T01:57:24;2.00;;;1.40;;
3083;SDS011;1552;51.952;7.618;2023-04-24T01:59:50;1.97;;;1.60;;
3083;SDS011;1552;51.952;7.618;2023-04-24T02:02:17;3.87;;;1.63;;
3083;SDS011;1552;51.952;7.618;2023-04-24T02:04:43;1.90;;;1.70;;
3083;SDS011;1552;51.952;7.618;2023-04-24T02:07:09;3.70;;;1.73;;
3083;SDS011;1552;51.952;7.618;2023-04-24T02:09:36;1.80;;;1.70;;
3083;SDS011;1552;51.952;7.618;2023-04-24T02:12:02;2.83;;;2.50;;
3083;SDS011;1552;51.952;7.618;2023-04-24T02:14:30;5.93;;;2.30;;
3083;SDS011;1552;51.952;7.618;2023-04-24T02:16:56;3.10;;;2.47;;
3083;SDS011;1552;51.952;7.618;2023-04-24T02:19:23;3.07;;;2.50;;
3083;SDS011;1552;51.952;7.618;2023-04-24T02:21:49;3.53;;;2.70;;
3083;SDS011;1552;51.952;7.618;2023-04-24T02:24:15;3.30;;;3.00;;
3083;SDS011;1552;51.952;7.618;2023-04-24T02:26:42;4.27;;;2.87;;
3083;SDS011;1552;51.952;7.618;2023-04-24T02:29:08;2.83;;;2.63;;
3083;SDS011;1552;51.952;7.618;2023-04-24T02:31:36;4.50;;;2.67;;
3083;SDS011;1552;51.952;7.618;2023-04-24T02:34:02;2.70;;;2.50;;
3083;SDS011;1552;51.952;7.618;2023-04-24T02:36:28;4.93;;;2.20;;
3083;SDS011;1552;51.952;7.618;2023-04-24T02:38:55;4.63;;;2.80;;
3083;SDS011;1552;51.952;7.618;2023-04-24T02:41:21;2.83;;;2.57;;
3083;SDS011;1552;51.952;7.618;2023-04-24T02:43:48;4.20;;;2.47;;
3083;SDS011;1552;51.952;7.618;2023-04-24T02:46:14;5.47;;;2.77;;
3083;SDS011;1552;51.952;7.618;2023-04-24T02:48:42;3.00;;;2.53;;
3083;SDS011;1552;51.952;7.618;2023-04-24T02:51:08;4.77;;;2.80;;
3083;SDS011;1552;51.952;7.618;2023-04-24T02:53:34;5.03;;;2.80;;
3083;SDS011;1552;51.952;7.618;2023-04-24T02:56:01;3.67;;;3.07;;
3083;SDS011;1552;51.952;7.618;2023-04-24T02:58:27;3.73;;;3.43;;
3083;SDS011;1552;51.952;7.618;2023-04-24T03:00:54;4.47;;;3.63;;
3083;SDS011;1552;51.952;7.618;2023-04-24T03:03:21;5.67;;;3.97;;
3083;SDS011;1552;51.952;7.618;2023-04-24T03:05:49;4.50;;;4.03;;
3083;SDS011;1552;51.952;7.618;2023-04-24T03:08:15;5.77;;;4.00;;
3083;SDS011;1552;51.952;7.618;2023-04-24T03:10:41;6.97;;;4.63;;
3083;SDS011;1552;51.952;7.618;2023-04-24T03:13:08;6.53;;;4.20;;
3083;SDS011;1552;51.952;7.618;2023-04-24T03:15:34;6.37;;;4.43;;
3083;SDS011;1552;51.952;7.618;2023-04-24T03:18:00;5.43;;;4.23;;
3083;SDS011;1552;51.952;7.618;2023-04-24T03:20:27;8.20;;;5.57;;
3083;SDS011;1552;51.952;7.618;2023-04-24T03:22:55;6.70;;;5.00;;
3083;SDS011;1552;51.952;7.618;2023-04-24T03:25:22;9.37;;;5.53;;
3083;SDS011;1552;51.952;7.618;2023-04-24T03:27:48;11.17;;;6.30;;
3083;SDS011;1552;51.952;7.618;2023-04-24T03:30:14;8.93;;;6.13;;
3083;SDS011;1552;51.952;7.618;2023-04-24T03:32:41;10.10;;;7.13;;
3083;SDS011;1552;51.952;7.618;2023-04-24T03:35:07;8.13;;;6.57;;
3083;SDS011;1552;51.952;7.618;2023-04-24T03:37:34;9.30;;;7.07;;
3083;SDS011;1552;51.952;7.618;2023-04-24T03:40:02;10.90;;;7.33;;
3083;SDS011;1552;51.952;7.618;2023-04-24T03:42:28;11.97;;;7.67;;
3083;SDS011;1552;51.952;7.618;2023-04-24T03:44:55;10.50;;;8.10;;
3083;SDS011;1552;51.952;7.618;2023-04-24T03:47:21;11.13;;;7.90;;
3083;SDS011;1552;51.952;7.618;2023-04-24T03:49:47;11.50;;;8.40;;
3083;SDS011;1552;51.952;7.618;2023-04-24T03:52:14;10.80;;;7.27;;
3083;SDS011;1552;51.952;7.618;2023-04-24T03:54:40;12.03;;;8.23;;
3083;SDS011;1552;51.952;7.618;2023-04-24T03:57:08;11.00;;;8.73;;
3083;SDS011;1552;51.952;7.618;2023-04-24T03:59:34;11.43;;;8.23;;
3083;SDS011;1552;51.952;7.618;2023-04-24T04:02:00;13.70;;;8.77;;
3083;SDS011;1552;51.952;7.618;2023-04-24T04:04:27;14.07;;;9.47;;
3083;SDS011;1552;51.952;7.618;2023-04-24T04:06:53;11.77;;;8.70;;
3083;SDS011;1552;51.952;7.618;2023-04-24T04:09:19;14.83;;;10.27;;
3083;SDS011;1552;51.952;7.618;2023-04-24T04:11:46;14.90;;;10.73;;
3083;SDS011;1552;51.952;7.618;2023-04-24T04:14:14;12.70;;;9.97;;
3083;SDS011;1552;51.952;7.618;2023-04-24T04:16:40;15.27;;;10.50;;
3083;SDS011;1552;51.952;7.618;2023-04-24T04:19:07;17.90;;;10.77;;
3083;SDS011;1552;51.952;7.618;2023-04-24T04:21:33;18.63;;;10.87;;
3083;SDS011;1552;51.952;7.618;2023-04-24T04:23:59;18.63;;;12.00;;
3083;SDS011;1552;51.952;7.618;2023-04-24T04:26:26;15.20;;;10.60;;
3083;SDS011;1552;51.952;7.618;2023-04-24T04:28:52;20.73;;;11.90;;
3083;SDS011;1552;51.952;7.618;2023-04-24T04:31:20;17.40;;;11.33;;
3083;SDS011;1552;51.952;7.618;2023-04-24T04:33:46;19.23;;;12.37;;
3083;SDS011;1552;51.952;7.618;2023-04-24T04:36:13;23.00;;;13.40;;
3083;SDS011;1552;51.952;7.618;2023-04-24T04:38:39;19.53;;;12.87;;
3083;SDS011;1552;51.952;7.618;2023-04-24T04:41:07;21.20;;;13.90;;
3083;SDS011;1552;51.952;7.618;2023-04-24T04:43:34;20.17;;;13.77;;
3083;SDS011;1552;51.952;7.618;2023-04-24T04:46:01;23.07;;;13.73;;
3083;SDS011;1552;51.952;7.618;2023-04-24T04:48:30;23.47;;;13.13;;
3083;SDS011;1552;51.952;7.618;2023-04-24T04:50:56;23.20;;;14.70;;
3083;SDS011;1552;51.952;7.618;2023-04-24T04:53:23;27.30;;;15.10;;
3083;SDS011;1552;51.952;7.618;2023-04-24T04:55:49;20.57;;;14.17;;
3083;SDS011;1552;51.952;7.618;2023-04-24T04:58:15;26.37;;;16.07;;
3083;SDS011;1552;51.952;7.618;2023-04-24T05:00:42;24.87;;;15.40;;
3083;SDS011;1552;51.952;7.618;2023-04-24T05:03:09;25.50;;;16.23;;
3083;SDS011;1552;51.952;7.618;2023-04-24T05:05:36;23.53;;;15.50;;
3083;SDS011;1552;51.952;7.618;2023-04-24T05:08:05;24.07;;;15.40;;
3083;SDS011;1552;51.952;7.618;2023-04-24T05:10:32;26.57;;;16.17;;
3083;SDS011;1552;51.952;7.618;2023-04-24T05:12:58;22.27;;;15.10;;
3083;SDS011;1552;51.952;7.618;2023-04-24T05:15:24;23.17;;;15.53;;
3083;SDS011;1552;51.952;7.618;2023-04-24T05:17:51;26.97;;;15.67;;
3083;SDS011;1552;51.952;7.618;2023-04-24T05:20:17;23.87;;;15.27;;
3083;SDS011;1552;51.952;7.618;2023-04-24T05:22:45;26.07;;;15.17;;
3083;SDS011;1552;51.952;7.618;2023-04-24T05:25:11;25.17;;;17.50;;
3083;SDS011;1552;51.952;7.618;2023-04-24T05:27:38;22.03;;;15.83;;
3083;SDS011;1552;51.952;7.618;2023-04-24T05:30:05;24.53;;;16.30;;
3083;SDS011;1552;51.952;7.618;2023-04-24T05:32:32;25.93;;;15.40;;
3083;SDS011;1552;51.952;7.618;2023-04-24T05:34:59;27.13;;;16.20;;
3083;SDS011;1552;51.952;7.618;2023-04-24T05:37:25;26.63;;;16.37;;
3083;SDS011;1552;51.952;7.618;2023-04-24T05:39:53;28.93;;;16.00;;
3083;SDS011;1552;51.952;7.618;2023-04-24T05:42:19;24.17;;;16.77;;
3083;SDS011;1552;51.952;7.618;2023-04-24T05:44:45;24.70;;;16.80;;
3083;SDS011;1552;51.952;7.618;2023-04-24T05:47:12;23.47;;;15.60;;
3083;SDS011;1552;51.952;7.618;2023-04-24T05:49:38;22.10;;;15.97;;
3083;SDS011;1552;51.952;7.618;2023-04-24T05:52:04;23.00;;;16.33;;
3083;SDS011;1552;51.952;7.618;2023-04-24T05:54:33;21.17;;;15.33;;
3083;SDS011;1552;51.952;7.618;2023-04-24T05:57:01;26.23;;;15.17;;
3083;SDS011;1552;51.952;7.618;2023-04-24T05:59:32;22.73;;;15.67;;
3083;SDS011;1552;51.952;7.618;2023-04-24T06:01:58;22.40;;;15.30;;
3083;SDS011;1552;51.952;7.618;2023-04-24T06:04:25;22.10;;;14.93;;
3083;SDS011;1552;51.952;7.618;2023-04-24T06:06:51;22.60;;;14.37;;
3083;SDS011;1552;51.952;7.618;2023-04-24T06:09:20;21.43;;;14.53;;
3083;SDS011;1552;51.952;7.618;2023-04-24T06:11:47;22.13;;;13.60;;
3083;SDS011;1552;51.952;7.618;2023-04-24T06:14:14;21.43;;;13.47;;
3083;SDS011;1552;51.952;7.618;2023-04-24T06:16:41;21.13;;;12.87;;
3083;SDS011;1552;51.952;7.618;2023-04-24T06:19:08;20.47;;;12.77;;
3083;SDS011;1552;51.952;7.618;2023-04-24T06:21:34;18.97;;;13.10;;
3083;SDS011;1552;51.952;7.618;2023-04-24T06:24:00;17.60;;;11.93;;
3083;SDS011;1552;51.952;7.618;2023-04-24T06:26:27;19.83;;;12.00;;
3083;SDS011;1552;51.952;7.618;2023-04-24T06:28:53;20.37;;;12.60;;
3083;SDS011;1552;51.952;7.618;2023-04-24T06:31:21;19.63;;;12.77;;
3083;SDS011;1552;51.952;7.618;2023-04-24T06:33:48;20.07;;;12.47;;
3083;SDS011;1552;51.952;7.618;2023-04-24T06:36:14;20.83;;;12.73;;
3083;SDS011;1552;51.952;7.618;2023-04-24T06:38:40;16.83;;;12.30;;
3083;SDS011;1552;51.952;7.618;2023-04-24T06:41:07;17.53;;;11.40;;
3083;SDS011;1552;51.952;7.618;2023-04-24T06:43:33;18.00;;;12.37;;
3083;SDS011;1552;51.952;7.618;2023-04-24T06:46:00;17.57;;;12.17;;
3083;SDS011;1552;51.952;7.618;2023-04-24T06:48:29;18.07;;;12.57;;
3083;SDS011;1552;51.952;7.618;2023-04-24T06:50:56;19.37;;;11.83;;
3083;SDS011;1552;51.952;7.618;2023-04-24T06:53:22;19.70;;;11.93;;
3083;SDS011;1552;51.952;7.618;2023-04-24T06:55:48;14.90;;;11.17;;
3083;SDS011;1552;51.952;7.618;2023-04-24T06:58:15;11.83;;;10.13;;
3083;SDS011;1552;51.952;7.618;2023-04-24T07:00:41;14.07;;;11.13;;
3083;SDS011;1552;51.952;7.618;2023-04-24T07:03:08;15.70;;;11.57;;
3083;SDS011;1552;51.952;7.618;2023-04-24T07:05:36;14.77;;;12.40;;
3083;SDS011;1552;51.952;7.618;2023-04-24T07:08:03;15.87;;;12.47;;
3083;SDS011;1552;51.952;7.618;2023-04-24T07:10:29;14.63;;;11.57;;
3083;SDS011;1552;51.952;7.618;2023-04-24T07:12:56;15.47;;;11.90;;
3083;SDS011;1552;51.952;7.618;2023-04-24T07:15:22;15.50;;;11.23;;
3083;SDS011;1552;51.952;7.618;2023-04-24T07:17:49;14.53;;;11.63;;
3083;SDS011;1552;51.952;7.618;2023-04-24T07:20:15;14.77;;;11.00;;
3083;SDS011;1552;51.952;7.618;2023-04-24T07:22:43;14.23;;;10.60;;
3083;SDS011;1552;51.952;7.618;2023-04-24T07:25:09;13.93;;;11.20;;
3083;SDS011;1552;51.952;7.618;2023-04-24T07:27:36;12.07;;;10.07;;
3083;SDS011;1552;51.952;7.618;2023-04-24T07:30:02;15.53;;;10.23;;
3083;SDS011;1552;51.952;7.618;2023-04-24T07:32:29;14.77;;;10.60;;
3083;SDS011;1552;51.952;7.618;2023-04-24T07:34:55;13.60;;;9.63;;
3083;SDS011;1552;51.952;7.618;2023-04-24T07:37:22;11.63;;;9.17;;
3083;SDS011;1552;51.952;7.618;2023-04-24T07:39:50;12.57;;;9.37;;
3083;SDS011;1552;51.952;7.618;2023-04-24T07:42:16;13.43;;;9.00;;
3083;SDS011;1552;51.952;7.618;2023-04-24T07:44:42;13.73;;;10.00;;
3083;SDS011;1552;51.952;7.618;2023-04-24T07:47:09;10.03;;;8.17;;
3083;SDS011;1552;51.952;7.618;2023-04-24T07:49:35;10.80;;;8.60;;
3083;SDS011;1552;51.952;7.618;2023-04-24T07:52:02;10.83;;;8.67;;
3083;SDS011;1552;51.952;7.618;2023-04-24T07:54:28;10.80;;;8.47;;
3083;SDS011;1552;51.952;7.618;2023-04-24T07:56:56;10.20;;;7.67;;
3083;SDS011;1552;51.952;7.618;2023-04-24T07:59:22;14.33;;;8.07;;
3083;SDS011;1552;51.952;7.618;2023-04-24T08:01:48;9.17;;;6.43;;
3083;SDS011;1552;51.952;7.618;2023-04-24T08:04:15;9.10;;;6.80;;
3083;SDS011;1552;51.952;7.618;2023-04-24T08:06:42;8.70;;;6.77;;
3083;SDS011;1552;51.952;7.618;2023-04-24T08:09:09;8.60;;;6.67;;
3083;SDS011;1552;51.952;7.618;2023-04-24T08:11:35;9.57;;;7.47;;
3083;SDS011;1552;51.952;7.618;2023-04-24T08:14:03;7.70;;;6.43;;
3083;SDS011;1552;51.952;7.618;2023-04-24T08:16:29;8.63;;;6.40;;
3083;SDS011;1552;51.952;7.618;2023-04-24T08:18:56;7.93;;;6.10;;
3083;SDS011;1552;51.952;7.618;2023-04-24T08:21:22;7.77;;;6.13;;
3083;SDS011;1552;51.952;7.618;2023-04-24T08:23:49;9.47;;;6.80;;
3083;SDS011;1552;51.952;7.618;2023-04-24T08:26:16;13.10;;;6.63;;
3083;SDS011;1552;51.952;7.618;2023-04-24T08:28:42;8.27;;;6.30;;
3083;SDS011;1552;51.952;7.618;2023-04-24T08:31:10;8.87;;;5.80;;
3083;SDS011;1552;51.952;7.618;2023-04-24T08:33:36;8.03;;;6.70;;
3083;SDS011;1552;51.952;7.618;2023-04-24T08:36:03;7.57;;;5.93;;
3083;SDS011;1552;51.952;7.618;2023-04-24T08:38:30;7.40;;;6.40;;
3083;SDS011;1552;51.952;7.618;2023-04-24T08:40:57;8.23;;;6.60;;
3083;SDS011;1552;51.952;7.618;2023-04-24T08:43:24;8.77;;;7.10;;
3083;SDS011;1552;51.952;7.618;2023-04-24T08:45:51;8.97;;;6.20;;
3083;SDS011;1552;51.952;7.618;2023-04-24T08:48:19;8.23;;;6.50;;
3083;SDS011;1552;51.952;7.618;2023-04-24T08:50:46;6.67;;;5.33;;
3083;SDS011;1552;51.952;7.618;2023-04-24T08:53:14;6.53;;;5.70;;
3083;SDS011;1552;51.952;7.618;2023-04-24T08:55:40;6.53;;;5.57;;
3083;SDS011;1552;51.952;7.618;2023-04-24T08:58:07;6.17;;;5.57;;
3083;SDS011;1552;51.952;7.618;2023-04-24T09:00:34;5.80;;;5.17;;
3083;SDS011;1552;51.952;7.618;2023-04-24T09:03:00;5.73;;;5.13;;
3083;SDS011;1552;51.952;7.618;2023-04-24T09:05:28;8.20;;;5.30;;
3083;SDS011;1552;51.952;7.618;2023-04-24T09:07:55;5.00;;;4.47;;
3083;SDS011;1552;51.952;7.618;2023-04-24T09:10:23;4.97;;;4.47;;
3083;SDS011;1552;51.952;7.618;2023-04-24T09:12:50;5.30;;;4.80;;
3083;SDS011;1552;51.952;7.618;2023-04-24T09:15:16;5.70;;;5.10;;
3083;SDS011;1552;51.952;7.618;2023-04-24T09:17:43;5.43;;;4.20;;
3083;SDS011;1552;51.952;7.618;2023-04-24T09:20:09;5.03;;;4.63;;
3083;SDS011;1552;51.952;7.618;2023-04-24T09:22:37;4.83;;;4.43;;
3083;SDS011;1552;51.952;7.618;2023-04-24T09:25:04;5.07;;;4.57;;
3083;SDS011;1552;51.952;7.618;2023-04-24T09:27:31;5.93;;;4.93;;
3083;SDS011;1552;51.952;7.618;2023-04-24T09:29:58;5.90;;;4.73;;
3083;SDS011;1552;51.952;7.618;2023-04-24T09:32:25;5.20;;;4.30;;
3083;SDS011;1552;51.952;7.618;2023-04-24T09:35:05;4.40;;;4.00;;
3083;SDS011;1552;51.952;7.618;2023-04-24T09:37:34;5.60;;;3.97;;
3083;SDS011;1552;51.952;7.618;2023-04-24T09:40:09;4.93;;;3.90;;
3083;SDS011;1552;51.952;7.618;2023-04-24T09:42:36;3.87;;;3.47;;
3083;SDS011;1552;51.952;7.618;2023-04-24T09:45:02;4.23;;;3.83;;
3083;SDS011;1552;51.952;7.618;2023-04-24T09:47:30;5.97;;;4.40;;
3083;SDS011;1552;51.952;7.618;2023-04-24T09:50:01;4.33;;;3.93;;
3083;SDS011;1552;51.952;7.618;2023-04-24T09:52:34;6.20;;;4.10;;
3083;SDS011;1552;51.952;7.618;2023-04-24T09:55:01;4.37;;;3.60;;
3083;SDS011;1552;51.952;7.618;2023-04-24T09:57:29;6.50;;;4.17;;
3083;SDS011;1552;51.952;7.618;2023-04-24T09:59:56;6.77;;;4.30;;
3083;SDS011;1552;51.952;7.618;2023-04-24T10:02:23;5.23;;;3.70;;
3083;SDS011;1552;51.952;7.618;2023-04-24T10:04:53;4.23;;;3.20;;
3083;SDS011;1552;51.952;7.618;2023-04-24T10:07:20;4.60;;;3.60;;
3083;SDS011;1552;51.952;7.618;2023-04-24T10:09:46;6.07;;;3.50;;
3083;SDS011;1552;51.952;7.618;2023-04-24T10:12:12;6.30;;;3.53;;
3083;SDS011;1552;51.952;7.618;2023-04-24T10:14:41;4.57;;;3.77;;
3083;SDS011;1552;51.952;7.618;2023-04-24T10:17:07;3.77;;;3.47;;
3083;SDS011;1552;51.952;7.618;2023-04-24T10:19:34;6.30;;;4.00;;
3083;SDS011;1552;51.952;7.618;2023-04-24T10:22:01;5.10;;;3.70;;
3083;SDS011;1552;51.952;7.618;2023-04-24T10:24:28;5.13;;;3.27;;
3083;SDS011;1552;51.952;7.618;2023-04-24T10:26:55;4.07;;;3.33;;
3083;SDS011;1552;51.952;7.618;2023-04-24T10:29:23;4.57;;;3.20;;
3083;SDS011;1552;51.952;7.618;2023-04-24T10:31:51;4.57;;;3.63;;
3083;SDS011;1552;51.952;7.618;2023-04-24T10:34:17;3.57;;;3.17;;
3083;SDS011;1552;51.952;7.618;2023-04-24T10:36:47;9.60;;;3.40;;
3083;SDS011;1552;51.952;7.618;2023-04-24T10:39:14;6.97;;;3.47;;
3083;SDS011;1552;51.952;7.618;2023-04-24T10:41:42;4.60;;;3.80;;
3083;SDS011;1552;51.952;7.618;2023-04-24T10:44:09;5.17;;;3.50;;
3083;SDS011;1552;51.952;7.618;2023-04-24T10:46:35;6.87;;;4.30;;
3083;SDS011;1552;51.952;7.618;2023-04-24T10:49:04;8.33;;;5.10;;
3083;SDS011;1552;51.952;7.618;2023-04-24T10:51:46;9.53;;;5.17;;
3083;SDS011;1552;51.952;7.618;2023-04-24T10:54:22;6.50;;;5.00;;
3083;SDS011;1552;51.952;7.618;2023-04-24T10:56:49;5.93;;;4.90;;
3083;SDS011;1552;51.952;7.618;2023-04-24T10:59:23;10.67;;;5.00;;
3083;SDS011;1552;51.952;7.618;2023-04-24T11:01:52;8.33;;;5.37;;
3083;SDS011;1552;51.952;7.618;2023-04-24T11:04:29;9.87;;;5.37;;
3083;SDS011;1552;51.952;7.618;2023-04-24T11:06:56;9.90;;;5.77;;
3083;SDS011;1552;51.952;7.618;2023-04-24T11:09:23;9.83;;;4.83;;
3083;SDS011;1552;51.952;7.618;2023-04-24T11:11:53;9.20;;;5.60;;
3083;SDS011;1552;51.952;7.618;2023-04-24T11:14:28;8.70;;;4.70;;
3083;SDS011;1552;51.952;7.618;2023-04-24T11:16:54;6.80;;;4.50;;
3083;SDS011;1552;51.952;7.618;2023-04-24T11:19:22;6.33;;;4.27;;
3083;SDS011;1552;51.952;7.618;2023-04-24T11:21:55;9.03;;;4.47;;
3083;SDS011;1552;51.952;7.618;2023-04-24T11:24:26;9.97;;;5.23;;
3083;SDS011;1552;51.952;7.618;2023-04-24T11:26:53;6.50;;;4.33;;
3083;SDS011;1552;51.952;7.618;2023-04-24T11:29:19;6.40;;;4.50;;
3083;SDS011;1552;51.952;7.618;2023-04-24T11:31:46;6.83;;;4.50;;
3083;SDS011;1552;51.952;7.618;2023-04-24T11:34:15;7.07;;;4.10;;
3083;SDS011;1552;51.952;7.618;2023-04-24T11:36:42;8.37;;;4.80;;
3083;SDS011;1552;51.952;7.618;2023-04-24T11:39:11;6.63;;;4.20;;
3083;SDS011;1552;51.952;7.618;2023-04-24T11:41:37;6.57;;;4.23;;
3083;SDS011;1552;51.952;7.618;2023-04-24T11:44:06;5.77;;;3.70;;
3083;SDS011;1552;51.952;7.618;2023-04-24T11:46:32;7.40;;;3.63;;
3083;SDS011;1552;51.952;7.618;2023-04-24T11:48:59;6.27;;;3.57;;
3083;SDS011;1552;51.952;7.618;2023-04-24T11:51:26;4.93;;;3.73;;
3083;SDS011;1552;51.952;7.618;2023-04-24T11:53:53;6.07;;;4.10;;
3083;SDS011;1552;51.952;7.618;2023-04-24T11:56:22;7.00;;;3.60;;
3083;SDS011;1552;51.952;7.618;2023-04-24T11:58:48;4.83;;;3.73;;
3083;SDS011;1552;51.952;7.618;2023-04-24T12:01:15;8.80;;;4.60;;
3083;SDS011;1552;51.952;7.618;2023-04-24T12:03:41;12.97;;;5.30;;
3083;SDS011;1552;51.952;7.618;2023-04-24T12:06:11;10.33;;;5.50;;
3083;SDS011;1552;51.952;7.618;2023-04-24T12:08:38;14.23;;;4.90;;
3083;SDS011;1552;51.952;7.618;2023-04-24T12:11:05;10.93;;;5.07;;
3083;SDS011;1552;51.952;7.618;2023-04-24T12:13:34;12.17;;;5.57;;
3083;SDS011;1552;51.952;7.618;2023-04-24T12:16:01;14.67;;;5.63;;
3083;SDS011;1552;51.952;7.618;2023-04-24T12:18:28;12.00;;;5.83;;
3083;SDS011;1552;51.952;7.618;2023-04-24T12:20:54;10.17;;;5.30;;
3083;SDS011;1552;51.952;7.618;2023-04-24T12:23:33;10.87;;;5.20;;
3083;SDS011;1552;51.952;7.618;2023-04-24T12:26:00;11.27;;;6.37;;
3083;SDS011;1552;51.952;7.618;2023-04-24T12:28:35;12.63;;;5.80;;
3083;SDS011;1552;51.952;7.618;2023-04-24T12:31:02;11.63;;;5.47;;
3083;SDS011;1552;51.952;7.618;2023-04-24T12:33:31;9.03;;;4.73;;
3083;SDS011;1552;51.952;7.618;2023-04-24T12:35:58;15.23;;;5.23;;
3083;SDS011;1552;51.952;7.618;2023-04-24T12:38:25;10.03;;;5.83;;
3083;SDS011;1552;51.952;7.618;2023-04-24T12:41:01;13.40;;;5.23;;
3083;SDS011;1552;51.952;7.618;2023-04-24T12:43:28;16.77;;;5.00;;
3083;SDS011;1552;51.952;7.618;2023-04-24T12:45:55;8.80;;;5.20;;
3083;SDS011;1552;51.952;7.618;2023-04-24T12:48:22;11.40;;;5.40;;
3083;SDS011;1552;51.952;7.618;2023-04-24T12:50:48;17.23;;;5.67;;
3083;SDS011;1552;51.952;7.618;2023-04-24T12:53:15;11.37;;;5.40;;
3083;SDS011;1552;51.952;7.618;2023-04-24T12:55:41;9.37;;;5.87;;
3083;SDS011;1552;51.952;7.618;2023-04-24T12:58:09;9.90;;;4.97;;
3083;SDS011;1552;51.952;7.618;2023-04-24T13:00:35;14.13;;;5.33;;
3083;SDS011;1552;51.952;7.618;2023-04-24T13:03:03;11.27;;;4.57;;
3083;SDS011;1552;51.952;7.618;2023-04-24T13:05:30;16.03;;;5.13;;
3083;SDS011;1552;51.952;7.618;2023-04-24T13:07:56;12.47;;;3.93;;
3083;SDS011;1552;51.952;7.618;2023-04-24T13:10:23;9.87;;;3.60;;
3083;SDS011;1552;51.952;7.618;2023-04-24T13:12:49;7.90;;;4.03;;
3083;SDS011;1552;51.952;7.618;2023-04-24T13:15:15;9.93;;;4.20;;
3083;SDS011;1552;51.952;7.618;2023-04-24T13:17:42;7.93;;;4.07;;
3083;SDS011;1552;51.952;7.618;2023-04-24T13:20:10;9.50;;;4.03;;
3083;SDS011;1552;51.952;7.618;2023-04-24T13:22:36;11.93;;;4.50;;
3083;SDS011;1552;51.952;7.618;2023-04-24T13:25:03;11.10;;;4.27;;
3083;SDS011;1552;51.952;7.618;2023-04-24T13:27:30;8.97;;;4.37;;
3083;SDS011;1552;51.952;7.618;2023-04-24T13:29:57;9.03;;;4.40;;
3083;SDS011;1552;51.952;7.618;2023-04-24T13:32:23;11.07;;;4.57;;
3083;SDS011;1552;51.952;7.618;2023-04-24T13:34:50;7.63;;;3.53;;
3083;SDS011;1552;51.952;7.618;2023-04-24T13:37:18;9.60;;;4.13;;
3083;SDS011;1552;51.952;7.618;2023-04-24T13:39:44;8.17;;;3.50;;
3083;SDS011;1552;51.952;7.618;2023-04-24T13:42:10;6.10;;;3.30;;
3083;SDS011;1552;51.952;7.618;2023-04-24T13:44:37;6.37;;;2.90;;
3083;SDS011;1552;51.952;7.618;2023-04-24T13:47:04;7.13;;;2.87;;
3083;SDS011;1552;51.952;7.618;2023-04-24T13:49:30;3.73;;;2.23;;
3083;SDS011;1552;51.952;7.618;2023-04-24T13:51:57;4.10;;;2.40;;
3083;SDS011;1552;51.952;7.618;2023-04-24T13:54:24;4.70;;;2.13;;
3083;SDS011;1552;51.952;7.618;2023-04-24T13:56:51;3.57;;;2.20;;
3083;SDS011;1552;51.952;7.618;2023-04-24T13:59:18;5.23;;;2.10;;
3083;SDS011;1552;51.952;7.618;2023-04-24T14:01:45;4.90;;;2.57;;
3083;SDS011;1552;51.952;7.618;2023-04-24T14:04:12;6.03;;;2.20;;
3083;SDS011;1552;51.952;7.618;2023-04-24T14:06:38;4.93;;;2.03;;
3083;SDS011;1552;51.952;7.618;2023-04-24T14:09:05;4.40;;;2.07;;
3083;SDS011;1552;51.952;7.618;2023-04-24T14:11:33;5.77;;;2.37;;
3083;SDS011;1552;51.952;7.618;2023-04-24T14:14:00;3.90;;;1.93;;
3083;SDS011;1552;51.952;7.618;2023-04-24T14:16:26;5.17;;;1.80;;
3083;SDS011;1552;51.952;7.618;2023-04-24T14:18:53;7.07;;;2.00;;
3083;SDS011;1552;51.952;7.618;2023-04-24T14:21:19;2.50;;;1.80;;
3083;SDS011;1552;51.952;7.618;2023-04-24T14:23:46;3.60;;;1.87;;
3083;SDS011;1552;51.952;7.618;2023-04-24T14:26:12;2.43;;;1.60;;
3083;SDS011;1552;51.952;7.618;2023-04-24T14:28:40;3.60;;;1.60;;
3083;SDS011;1552;51.952;7.618;2023-04-24T14:31:07;3.23;;;1.77;;
3083;SDS011;1552;51.952;7.618;2023-04-24T14:33:34;3.40;;;1.50;;
3083;SDS011;1552;51.952;7.618;2023-04-24T14:36:00;4.03;;;1.70;;
3083;SDS011;1552;51.952;7.618;2023-04-24T14:38:27;3.67;;;2.03;;
3083;SDS011;1552;51.952;7.618;2023-04-24T14:40:54;3.80;;;1.83;;
3083;SDS011;1552;51.952;7.618;2023-04-24T14:43:20;4.93;;;1.93;;
3083;SDS011;1552;51.952;7.618;2023-04-24T14:45:48;5.33;;;2.30;;
3083;SDS011;1552;51.952;7.618;2023-04-24T14:48:15;5.03;;;2.00;;
3083;SDS011;1552;51.952;7.618;2023-04-24T14:50:42;4.83;;;2.40;;
3083;SDS011;1552;51.952;7.618;2023-04-24T14:53:09;3.37;;;2.00;;
3083;SDS011;1552;51.952;7.618;2023-04-24T14:55:35;3.87;;;2.00;;
3083;SDS011;1552;51.952;7.618;2023-04-24T14:58:02;6.00;;;2.93;;
3083;SDS011;1552;51.952;7.618;2023-04-24T15:00:28;2.73;;;1.97;;
3083;SDS011;1552;51.952;7.618;2023-04-24T15:02:56;5.63;;;2.30;;
3083;SDS011;1552;51.952;7.618;2023-04-24T15:05:22;5.40;;;1.90;;
3083;SDS011;1552;51.952;7.618;2023-04-24T15:07:49;6.77;;;2.10;;